sensor_id;sensor_type;location;lat;lon;timestamp;P1;durP1;ratioP1;P2;durP2;ratioP2
13406;SDS011;6774;48.208;10.766;2023-08-30T00:00:57;7.27;;;6.87;;
13406;SDS011;6774;48.208;10.766;2023-08-30T00:03:24;7.93;;;7.43;;
13406;SDS011;6774;48.208;10.766;2023-08-30T00:05:52;6.97;;;6.60;;
13406;SDS011;6774;48.208;10.766;2023-08-30T00:08:21;8.57;;;8.07;;
13406;SDS011;6774;48.208;10.766;2023-08-30T00:10:49;7.47;;;7.07;;
13406;SDS011;6774;48.208;10.766;2023-08-30T00:13:19;7.93;;;7.30;;
13406;SDS011;6774;48.208;10.766;2023-08-30T00:15:46;8.10;;;7.60;;
13406;SDS011;6774;48.208;10.766;2023-08-30T00:18:14;6.47;;;6.07;;
13406;SDS011;6774;48.208;10.766;2023-08-30T00:20:42;6.63;;;6.23;;
13406;SDS011;6774;48.208;10.766;2023-08-30T00:23:09;6.60;;;6.20;;
13406;SDS011;6774;48.208;10.766;2023-08-30T00:25:37;6.87;;;6.33;;
13406;SDS011;6774;48.208;10.766;2023-08-30T00:28:05;7.40;;;7.00;;
13406;SDS011;6774;48.208;10.766;2023-08-30T00:30:35;6.30;;;5.90;;
13406;SDS011;6774;48.208;10.766;2023-08-30T00:33:03;5.77;;;5.47;;
13406;SDS011;6774;48.208;10.766;2023-08-30T00:35:31;6.73;;;6.37;;
13406;SDS011;6774;48.208;10.766;2023-08-30T00:37:59;7.47;;;7.07;;
13406;SDS011;6774;48.208;10.766;2023-08-30T00:40:28;8.23;;;7.73;;
13406;SDS011;6774;48.208;10.766;2023-08-30T00:42:56;7.43;;;6.90;;
13406;SDS011;6774;48.208;10.766;2023-08-30T00:45:23;6.00;;;5.70;;
13406;SDS011;6774;48.208;10.766;2023-08-30T00:47:54;6.17;;;5.83;;
13406;SDS011;6774;48.208;10.766;2023-08-30T00:50:23;7.10;;;6.70;;
13406;SDS011;6774;48.208;10.766;2023-08-30T00:52:51;6.57;;;6.07;;
13406;SDS011;6774;48.208;10.766;2023-08-30T00:55:19;5.97;;;5.67;;
13406;SDS011;6774;48.208;10.766;2023-08-30T00:57:47;6.27;;;5.87;;
13406;SDS011;6774;48.208;10.766;2023-08-30T01:00:15;6.37;;;5.97;;
13406;SDS011;6774;48.208;10.766;2023-08-30T01:02:43;6.93;;;6.50;;
13406;SDS011;6774;48.208;10.766;2023-08-30T01:05:13;7.40;;;6.57;;
13406;SDS011;6774;48.208;10.766;2023-08-30T01:07:42;7.27;;;6.67;;
13406;SDS011;6774;48.208;10.766;2023-08-30T01:10:09;7.00;;;6.50;;
13406;SDS011;6774;48.208;10.766;2023-08-30T01:12:39;6.83;;;6.43;;
13406;SDS011;6774;48.208;10.766;2023-08-30T01:15:10;7.90;;;7.40;;
13406;SDS011;6774;48.208;10.766;2023-08-30T01:17:41;8.53;;;8.03;;
13406;SDS011;6774;48.208;10.766;2023-08-30T01:20:09;6.80;;;6.40;;
13406;SDS011;6774;48.208;10.766;2023-08-30T01:22:45;7.47;;;7.00;;
13406;SDS011;6774;48.208;10.766;2023-08-30T01:25:20;7.20;;;6.80;;
13406;SDS011;6774;48.208;10.766;2023-08-30T01:28:03;7.30;;;6.80;;
13406;SDS011;6774;48.208;10.766;2023-08-30T01:30:33;7.17;;;6.43;;
13406;SDS011;6774;48.208;10.766;2023-08-30T01:33:04;8.33;;;7.73;;
13406;SDS011;6774;48.208;10.766;2023-08-30T01:35:32;6.87;;;6.47;;
13406;SDS011;6774;48.208;10.766;2023-08-30T01:38:03;7.60;;;7.10;;
13406;SDS011;6774;48.208;10.766;2023-08-30T01:40:35;6.40;;;6.10;;
13406;SDS011;6774;48.208;10.766;2023-08-30T01:43:06;6.43;;;6.03;;
13406;SDS011;6774;48.208;10.766;2023-08-30T01:45:38;6.63;;;6.23;;
13406;SDS011;6774;48.208;10.766;2023-08-30T01:48:09;6.23;;;5.83;;
13406;SDS011;6774;48.208;10.766;2023-08-30T01:50:38;7.00;;;6.50;;
13406;SDS011;6774;48.208;10.766;2023-08-30T01:53:08;7.73;;;7.23;;
13406;SDS011;6774;48.208;10.766;2023-08-30T01:55:39;6.33;;;5.93;;
13406;SDS011;6774;48.208;10.766;2023-08-30T01:58:08;6.73;;;6.33;;
13406;SDS011;6774;48.208;10.766;2023-08-30T02:00:37;7.13;;;6.73;;
13406;SDS011;6774;48.208;10.766;2023-08-30T02:03:09;4.87;;;4.67;;
13406;SDS011;6774;48.208;10.766;2023-08-30T02:05:39;6.47;;;6.07;;
13406;SDS011;6774;48.208;10.766;2023-08-30T02:08:33;7.63;;;7.13;;
13406;SDS011;6774;48.208;10.766;2023-08-30T02:11:07;6.27;;;5.90;;
13406;SDS011;6774;48.208;10.766;2023-08-30T02:13:40;6.50;;;6.00;;
13406;SDS011;6774;48.208;10.766;2023-08-30T02:16:10;6.67;;;6.27;;
13406;SDS011;6774;48.208;10.766;2023-08-30T02:18:41;7.23;;;6.83;;
13406;SDS011;6774;48.208;10.766;2023-08-30T02:21:09;8.63;;;7.43;;
13406;SDS011;6774;48.208;10.766;2023-08-30T02:23:38;7.83;;;7.33;;
13406;SDS011;6774;48.208;10.766;2023-08-30T02:26:05;7.70;;;7.20;;
13406;SDS011;6774;48.208;10.766;2023-08-30T02:28:33;8.30;;;7.77;;
13406;SDS011;6774;48.208;10.766;2023-08-30T02:31:02;7.60;;;7.03;;
13406;SDS011;6774;48.208;10.766;2023-08-30T02:33:30;6.87;;;6.57;;
13406;SDS011;6774;48.208;10.766;2023-08-30T02:35:58;6.60;;;6.20;;
13406;SDS011;6774;48.208;10.766;2023-08-30T02:38:26;6.77;;;6.30;;
13406;SDS011;6774;48.208;10.766;2023-08-30T02:40:53;5.63;;;5.33;;
13406;SDS011;6774;48.208;10.766;2023-08-30T02:43:21;5.53;;;5.17;;
13406;SDS011;6774;48.208;10.766;2023-08-30T02:45:51;7.80;;;7.30;;
13406;SDS011;6774;48.208;10.766;2023-08-30T02:48:21;6.17;;;5.77;;
13406;SDS011;6774;48.208;10.766;2023-08-30T02:50:49;5.73;;;5.43;;
13406;SDS011;6774;48.208;10.766;2023-08-30T02:53:17;6.60;;;6.20;;
13406;SDS011;6774;48.208;10.766;2023-08-30T02:55:46;7.13;;;6.73;;
13406;SDS011;6774;48.208;10.766;2023-08-30T02:58:14;5.60;;;5.07;;
13406;SDS011;6774;48.208;10.766;2023-08-30T03:00:42;5.90;;;5.60;;
13406;SDS011;6774;48.208;10.766;2023-08-30T03:03:10;6.60;;;6.30;;
13406;SDS011;6774;48.208;10.766;2023-08-30T03:05:39;5.40;;;5.00;;
13406;SDS011;6774;48.208;10.766;2023-08-30T03:08:07;6.63;;;6.17;;
13406;SDS011;6774;48.208;10.766;2023-08-30T03:10:36;5.77;;;5.47;;
13406;SDS011;6774;48.208;10.766;2023-08-30T03:13:04;6.70;;;6.20;;
13406;SDS011;6774;48.208;10.766;2023-08-30T03:15:32;6.07;;;5.60;;
13406;SDS011;6774;48.208;10.766;2023-08-30T03:18:01;6.87;;;6.40;;
13406;SDS011;6774;48.208;10.766;2023-08-30T03:20:29;6.43;;;6.03;;
13406;SDS011;6774;48.208;10.766;2023-08-30T03:22:58;5.73;;;5.43;;
13406;SDS011;6774;48.208;10.766;2023-08-30T03:25:28;8.10;;;7.50;;
13406;SDS011;6774;48.208;10.766;2023-08-30T03:27:56;6.23;;;5.83;;
13406;SDS011;6774;48.208;10.766;2023-08-30T03:30:24;6.07;;;5.67;;
13406;SDS011;6774;48.208;10.766;2023-08-30T03:32:52;6.40;;;5.90;;
13406;SDS011;6774;48.208;10.766;2023-08-30T03:35:20;7.20;;;6.63;;
13406;SDS011;6774;48.208;10.766;2023-08-30T03:37:49;5.87;;;5.47;;
13406;SDS011;6774;48.208;10.766;2023-08-30T03:40:18;6.27;;;5.97;;
13406;SDS011;6774;48.208;10.766;2023-08-30T03:42:47;6.67;;;6.17;;
13406;SDS011;6774;48.208;10.766;2023-08-30T03:45:15;7.30;;;6.90;;
13406;SDS011;6774;48.208;10.766;2023-08-30T03:47:43;8.57;;;7.97;;
13406;SDS011;6774;48.208;10.766;2023-08-30T03:50:11;6.90;;;6.50;;
13406;SDS011;6774;48.208;10.766;2023-08-30T03:52:39;8.20;;;7.47;;
13406;SDS011;6774;48.208;10.766;2023-08-30T03:55:07;7.60;;;7.20;;
13406;SDS011;6774;48.208;10.766;2023-08-30T03:57:36;8.00;;;7.40;;
13406;SDS011;6774;48.208;10.766;2023-08-30T04:00:04;8.13;;;7.53;;
13406;SDS011;6774;48.208;10.766;2023-08-30T04:02:39;9.03;;;8.43;;
13406;SDS011;6774;48.208;10.766;2023-08-30T04:05:07;8.27;;;7.77;;
13406;SDS011;6774;48.208;10.766;2023-08-30T04:07:37;7.73;;;7.20;;
13406;SDS011;6774;48.208;10.766;2023-08-30T04:10:05;8.80;;;8.20;;
13406;SDS011;6774;48.208;10.766;2023-08-30T04:12:33;7.60;;;7.03;;
13406;SDS011;6774;48.208;10.766;2023-08-30T04:15:02;8.63;;;8.10;;
13406;SDS011;6774;48.208;10.766;2023-08-30T04:17:31;8.30;;;7.73;;
13406;SDS011;6774;48.208;10.766;2023-08-30T04:19:58;7.90;;;7.27;;
13406;SDS011;6774;48.208;10.766;2023-08-30T04:22:31;8.87;;;8.27;;
13406;SDS011;6774;48.208;10.766;2023-08-30T04:25:01;8.93;;;8.33;;
13406;SDS011;6774;48.208;10.766;2023-08-30T04:27:29;8.33;;;7.73;;
13406;SDS011;6774;48.208;10.766;2023-08-30T04:29:57;10.27;;;9.57;;
13406;SDS011;6774;48.208;10.766;2023-08-30T04:32:26;11.10;;;10.33;;
13406;SDS011;6774;48.208;10.766;2023-08-30T04:34:54;9.63;;;8.77;;
13406;SDS011;6774;48.208;10.766;2023-08-30T04:37:22;11.40;;;10.60;;
13406;SDS011;6774;48.208;10.766;2023-08-30T04:39:49;9.20;;;8.60;;
13406;SDS011;6774;48.208;10.766;2023-08-30T04:42:17;7.83;;;7.23;;
13406;SDS011;6774;48.208;10.766;2023-08-30T04:44:45;10.40;;;9.70;;
13406;SDS011;6774;48.208;10.766;2023-08-30T04:47:13;9.40;;;8.77;;
13406;SDS011;6774;48.208;10.766;2023-08-30T04:49:42;9.43;;;8.73;;
13406;SDS011;6774;48.208;10.766;2023-08-30T04:52:10;10.07;;;9.37;;
13406;SDS011;6774;48.208;10.766;2023-08-30T04:54:39;8.90;;;8.20;;
13406;SDS011;6774;48.208;10.766;2023-08-30T04:57:08;9.67;;;8.97;;
13406;SDS011;6774;48.208;10.766;2023-08-30T04:59:40;9.57;;;8.97;;
13406;SDS011;6774;48.208;10.766;2023-08-30T05:02:09;9.77;;;9.17;;
13406;SDS011;6774;48.208;10.766;2023-08-30T05:04:45;12.90;;;11.87;;
13406;SDS011;6774;48.208;10.766;2023-08-30T05:07:13;9.40;;;8.77;;
13406;SDS011;6774;48.208;10.766;2023-08-30T05:09:41;10.10;;;9.37;;
13406;SDS011;6774;48.208;10.766;2023-08-30T05:12:08;10.03;;;9.33;;
13406;SDS011;6774;48.208;10.766;2023-08-30T05:14:36;9.93;;;9.33;;
13406;SDS011;6774;48.208;10.766;2023-08-30T05:17:04;10.23;;;9.47;;
13406;SDS011;6774;48.208;10.766;2023-08-30T05:19:32;10.03;;;9.30;;
13406;SDS011;6774;48.208;10.766;2023-08-30T05:22:04;11.90;;;10.90;;
13406;SDS011;6774;48.208;10.766;2023-08-30T05:24:34;11.03;;;10.23;;
13406;SDS011;6774;48.208;10.766;2023-08-30T05:27:02;10.17;;;9.47;;
13406;SDS011;6774;48.208;10.766;2023-08-30T05:29:37;8.87;;;8.23;;
13406;SDS011;6774;48.208;10.766;2023-08-30T05:32:05;13.60;;;12.23;;
13406;SDS011;6774;48.208;10.766;2023-08-30T05:34:51;9.30;;;8.70;;
13406;SDS011;6774;48.208;10.766;2023-08-30T05:37:41;8.20;;;7.40;;
13406;SDS011;6774;48.208;10.766;2023-08-30T05:40:24;11.07;;;10.27;;
13406;SDS011;6774;48.208;10.766;2023-08-30T05:43:14;8.57;;;8.03;;
13406;SDS011;6774;48.208;10.766;2023-08-30T05:45:42;9.47;;;8.87;;
13406;SDS011;6774;48.208;10.766;2023-08-30T05:48:10;10.40;;;9.60;;
13406;SDS011;6774;48.208;10.766;2023-08-30T05:50:38;10.43;;;9.53;;
13406;SDS011;6774;48.208;10.766;2023-08-30T05:53:08;10.73;;;10.03;;
13406;SDS011;6774;48.208;10.766;2023-08-30T05:55:36;10.50;;;9.50;;
13406;SDS011;6774;48.208;10.766;2023-08-30T05:58:05;9.90;;;9.20;;
13406;SDS011;6774;48.208;10.766;2023-08-30T06:00:33;8.73;;;8.13;;
13406;SDS011;6774;48.208;10.766;2023-08-30T06:03:01;9.43;;;8.73;;
13406;SDS011;6774;48.208;10.766;2023-08-30T06:05:29;9.13;;;8.53;;
13406;SDS011;6774;48.208;10.766;2023-08-30T06:07:57;9.67;;;8.97;;
13406;SDS011;6774;48.208;10.766;2023-08-30T06:10:26;8.97;;;8.37;;
13406;SDS011;6774;48.208;10.766;2023-08-30T06:12:54;8.77;;;8.17;;
13406;SDS011;6774;48.208;10.766;2023-08-30T06:15:22;8.00;;;7.40;;
13406;SDS011;6774;48.208;10.766;2023-08-30T06:17:49;10.23;;;9.43;;
13406;SDS011;6774;48.208;10.766;2023-08-30T06:20:17;8.87;;;8.17;;
13406;SDS011;6774;48.208;10.766;2023-08-30T06:22:45;8.30;;;7.70;;
13406;SDS011;6774;48.208;10.766;2023-08-30T06:25:13;10.30;;;9.57;;
13406;SDS011;6774;48.208;10.766;2023-08-30T06:27:42;8.57;;;8.07;;
13406;SDS011;6774;48.208;10.766;2023-08-30T06:30:22;7.57;;;6.97;;
13406;SDS011;6774;48.208;10.766;2023-08-30T06:32:50;7.43;;;7.03;;
13406;SDS011;6774;48.208;10.766;2023-08-30T06:35:17;8.80;;;8.20;;
13406;SDS011;6774;48.208;10.766;2023-08-30T06:37:45;8.90;;;8.30;;
13406;SDS011;6774;48.208;10.766;2023-08-30T06:40:13;8.57;;;7.93;;
13406;SDS011;6774;48.208;10.766;2023-08-30T06:42:42;9.40;;;8.70;;
13406;SDS011;6774;48.208;10.766;2023-08-30T06:45:10;9.93;;;9.03;;
13406;SDS011;6774;48.208;10.766;2023-08-30T06:47:38;10.17;;;9.27;;
13406;SDS011;6774;48.208;10.766;2023-08-30T06:50:06;8.93;;;8.27;;
13406;SDS011;6774;48.208;10.766;2023-08-30T06:52:36;10.20;;;9.30;;
13406;SDS011;6774;48.208;10.766;2023-08-30T06:55:04;9.00;;;8.40;;
13406;SDS011;6774;48.208;10.766;2023-08-30T06:57:32;9.13;;;8.43;;
13406;SDS011;6774;48.208;10.766;2023-08-30T07:00:01;10.20;;;9.53;;
13406;SDS011;6774;48.208;10.766;2023-08-30T07:02:34;8.37;;;7.63;;
13406;SDS011;6774;48.208;10.766;2023-08-30T07:05:04;8.30;;;7.80;;
13406;SDS011;6774;48.208;10.766;2023-08-30T07:07:32;9.73;;;9.03;;
13406;SDS011;6774;48.208;10.766;2023-08-30T07:10:00;7.27;;;6.87;;
13406;SDS011;6774;48.208;10.766;2023-08-30T07:12:29;7.30;;;6.90;;
13406;SDS011;6774;48.208;10.766;2023-08-30T07:14:57;7.00;;;6.60;;
13406;SDS011;6774;48.208;10.766;2023-08-30T07:17:26;9.37;;;8.67;;
13406;SDS011;6774;48.208;10.766;2023-08-30T07:20:12;7.20;;;6.70;;
13406;SDS011;6774;48.208;10.766;2023-08-30T07:22:40;7.53;;;7.03;;
13406;SDS011;6774;48.208;10.766;2023-08-30T07:25:07;8.07;;;7.57;;
13406;SDS011;6774;48.208;10.766;2023-08-30T07:27:36;8.23;;;7.67;;
13406;SDS011;6774;48.208;10.766;2023-08-30T07:30:04;7.40;;;6.90;;
13406;SDS011;6774;48.208;10.766;2023-08-30T07:32:35;7.80;;;7.30;;
13406;SDS011;6774;48.208;10.766;2023-08-30T07:35:05;7.07;;;6.50;;
13406;SDS011;6774;48.208;10.766;2023-08-30T07:37:33;7.50;;;7.00;;
13406;SDS011;6774;48.208;10.766;2023-08-30T07:40:01;7.53;;;7.03;;
13406;SDS011;6774;48.208;10.766;2023-08-30T07:42:31;6.57;;;6.17;;
13406;SDS011;6774;48.208;10.766;2023-08-30T07:44:58;7.27;;;6.77;;
13406;SDS011;6774;48.208;10.766;2023-08-30T07:47:26;7.83;;;7.33;;
13406;SDS011;6774;48.208;10.766;2023-08-30T07:49:55;7.33;;;6.87;;
13406;SDS011;6774;48.208;10.766;2023-08-30T07:52:23;8.07;;;7.63;;
13406;SDS011;6774;48.208;10.766;2023-08-30T07:55:10;7.07;;;6.67;;
13406;SDS011;6774;48.208;10.766;2023-08-30T07:57:38;6.93;;;6.57;;
13406;SDS011;6774;48.208;10.766;2023-08-30T08:00:06;8.03;;;7.53;;
13406;SDS011;6774;48.208;10.766;2023-08-30T08:02:38;6.97;;;6.57;;
13406;SDS011;6774;48.208;10.766;2023-08-30T08:05:08;7.57;;;7.07;;
13406;SDS011;6774;48.208;10.766;2023-08-30T08:07:37;6.53;;;6.13;;
13406;SDS011;6774;48.208;10.766;2023-08-30T08:10:07;7.40;;;7.00;;
13406;SDS011;6774;48.208;10.766;2023-08-30T08:12:36;8.17;;;7.57;;
13406;SDS011;6774;48.208;10.766;2023-08-30T08:15:04;7.10;;;6.80;;
13406;SDS011;6774;48.208;10.766;2023-08-30T08:17:32;6.13;;;5.83;;
13406;SDS011;6774;48.208;10.766;2023-08-30T08:20:00;6.83;;;6.43;;
13406;SDS011;6774;48.208;10.766;2023-08-30T08:22:30;5.33;;;5.03;;
13406;SDS011;6774;48.208;10.766;2023-08-30T08:24:59;6.23;;;5.87;;
13406;SDS011;6774;48.208;10.766;2023-08-30T08:27:26;5.37;;;5.07;;
13406;SDS011;6774;48.208;10.766;2023-08-30T08:29:54;5.40;;;4.83;;
13406;SDS011;6774;48.208;10.766;2023-08-30T08:32:22;4.50;;;4.17;;
13406;SDS011;6774;48.208;10.766;2023-08-30T08:34:50;4.43;;;4.23;;
13406;SDS011;6774;48.208;10.766;2023-08-30T08:37:18;4.40;;;4.00;;
13406;SDS011;6774;48.208;10.766;2023-08-30T08:39:47;4.23;;;4.03;;
13406;SDS011;6774;48.208;10.766;2023-08-30T08:42:17;3.63;;;3.43;;
13406;SDS011;6774;48.208;10.766;2023-08-30T08:44:46;3.27;;;3.07;;
13406;SDS011;6774;48.208;10.766;2023-08-30T08:47:15;3.27;;;3.10;;
13406;SDS011;6774;48.208;10.766;2023-08-30T08:49:44;5.17;;;4.53;;
13406;SDS011;6774;48.208;10.766;2023-08-30T08:52:12;4.60;;;4.30;;
13406;SDS011;6774;48.208;10.766;2023-08-30T08:54:56;4.23;;;3.97;;
13406;SDS011;6774;48.208;10.766;2023-08-30T08:57:26;3.20;;;3.10;;
13406;SDS011;6774;48.208;10.766;2023-08-30T08:59:55;3.83;;;3.63;;
13406;SDS011;6774;48.208;10.766;2023-08-30T09:02:23;3.17;;;3.00;;
13406;SDS011;6774;48.208;10.766;2023-08-30T09:04:52;3.77;;;3.57;;
13406;SDS011;6774;48.208;10.766;2023-08-30T09:07:20;3.10;;;2.90;;
13406;SDS011;6774;48.208;10.766;2023-08-30T09:09:48;7.20;;;2.80;;
13406;SDS011;6774;48.208;10.766;2023-08-30T09:12:18;1.87;;;1.77;;
13406;SDS011;6774;48.208;10.766;2023-08-30T09:14:52;1.73;;;1.63;;
13406;SDS011;6774;48.208;10.766;2023-08-30T09:17:21;1.47;;;1.43;;
13406;SDS011;6774;48.208;10.766;2023-08-30T09:19:49;1.50;;;1.40;;
13406;SDS011;6774;48.208;10.766;2023-08-30T09:22:17;1.97;;;1.87;;
13406;SDS011;6774;48.208;10.766;2023-08-30T09:24:45;1.07;;;1.07;;
13406;SDS011;6774;48.208;10.766;2023-08-30T09:27:13;1.70;;;1.60;;
13406;SDS011;6774;48.208;10.766;2023-08-30T09:29:42;0.90;;;0.90;;
13406;SDS011;6774;48.208;10.766;2023-08-30T09:32:12;2.80;;;1.40;;
13406;SDS011;6774;48.208;10.766;2023-08-30T09:34:45;1.37;;;1.37;;
13406;SDS011;6774;48.208;10.766;2023-08-30T09:37:20;1.60;;;1.50;;
13406;SDS011;6774;48.208;10.766;2023-08-30T09:39:49;1.53;;;1.50;;
13406;SDS011;6774;48.208;10.766;2023-08-30T09:42:17;2.50;;;2.40;;
13406;SDS011;6774;48.208;10.766;2023-08-30T09:44:46;1.70;;;1.60;;
13406;SDS011;6774;48.208;10.766;2023-08-30T09:47:15;1.97;;;1.87;;
13406;SDS011;6774;48.208;10.766;2023-08-30T09:49:44;1.83;;;1.73;;
13406;SDS011;6774;48.208;10.766;2023-08-30T09:52:14;1.50;;;1.40;;
13406;SDS011;6774;48.208;10.766;2023-08-30T09:54:43;1.97;;;1.87;;
13406;SDS011;6774;48.208;10.766;2023-08-30T09:57:13;1.57;;;1.47;;
13406;SDS011;6774;48.208;10.766;2023-08-30T09:59:43;2.93;;;1.57;;
13406;SDS011;6774;48.208;10.766;2023-08-30T10:02:13;1.87;;;1.77;;
13406;SDS011;6774;48.208;10.766;2023-08-30T10:04:42;1.57;;;1.47;;
13406;SDS011;6774;48.208;10.766;2023-08-30T10:07:12;1.30;;;1.30;;
13406;SDS011;6774;48.208;10.766;2023-08-30T10:09:41;1.40;;;1.40;;
13406;SDS011;6774;48.208;10.766;2023-08-30T10:12:29;2.40;;;2.30;;
13406;SDS011;6774;48.208;10.766;2023-08-30T10:14:58;1.63;;;1.53;;
13406;SDS011;6774;48.208;10.766;2023-08-30T10:17:30;2.70;;;2.50;;
13406;SDS011;6774;48.208;10.766;2023-08-30T10:20:01;1.10;;;1.10;;
13406;SDS011;6774;48.208;10.766;2023-08-30T10:22:31;1.77;;;1.67;;
13406;SDS011;6774;48.208;10.766;2023-08-30T10:25:04;1.40;;;1.30;;
13406;SDS011;6774;48.208;10.766;2023-08-30T10:27:56;1.17;;;1.07;;
13406;SDS011;6774;48.208;10.766;2023-08-30T10:30:25;1.63;;;0.90;;
13406;SDS011;6774;48.208;10.766;2023-08-30T10:32:54;0.70;;;0.70;;
13406;SDS011;6774;48.208;10.766;2023-08-30T10:35:22;1.47;;;1.00;;
13406;SDS011;6774;48.208;10.766;2023-08-30T10:37:55;0.77;;;0.77;;
13406;SDS011;6774;48.208;10.766;2023-08-30T10:40:24;0.77;;;0.77;;
13406;SDS011;6774;48.208;10.766;2023-08-30T10:42:58;0.60;;;0.60;;
13406;SDS011;6774;48.208;10.766;2023-08-30T10:45:27;0.67;;;0.67;;
13406;SDS011;6774;48.208;10.766;2023-08-30T10:47:56;0.73;;;0.73;;
13406;SDS011;6774;48.208;10.766;2023-08-30T10:50:29;0.40;;;0.40;;
13406;SDS011;6774;48.208;10.766;2023-08-30T10:52:59;7.63;;;0.77;;
13406;SDS011;6774;48.208;10.766;2023-08-30T10:55:28;0.97;;;0.97;;
13406;SDS011;6774;48.208;10.766;2023-08-30T10:57:59;1.57;;;1.33;;
13406;SDS011;6774;48.208;10.766;2023-08-30T11:00:28;1.67;;;1.57;;
13406;SDS011;6774;48.208;10.766;2023-08-30T11:02:58;0.90;;;0.90;;
13406;SDS011;6774;48.208;10.766;2023-08-30T11:05:26;0.63;;;0.63;;
13406;SDS011;6774;48.208;10.766;2023-08-30T11:07:54;0.93;;;0.93;;
13406;SDS011;6774;48.208;10.766;2023-08-30T11:10:22;0.70;;;0.70;;
13406;SDS011;6774;48.208;10.766;2023-08-30T11:12:50;1.07;;;0.97;;
13406;SDS011;6774;48.208;10.766;2023-08-30T11:15:18;0.60;;;0.60;;
13406;SDS011;6774;48.208;10.766;2023-08-30T11:17:47;1.37;;;0.97;;
13406;SDS011;6774;48.208;10.766;2023-08-30T11:20:16;1.27;;;1.13;;
13406;SDS011;6774;48.208;10.766;2023-08-30T11:22:47;1.43;;;0.83;;
13406;SDS011;6774;48.208;10.766;2023-08-30T11:25:16;2.83;;;0.70;;
13406;SDS011;6774;48.208;10.766;2023-08-30T11:27:44;1.07;;;1.00;;
13406;SDS011;6774;48.208;10.766;2023-08-30T11:30:12;0.50;;;0.50;;
13406;SDS011;6774;48.208;10.766;2023-08-30T11:32:41;3.17;;;0.47;;
13406;SDS011;6774;48.208;10.766;2023-08-30T11:35:10;0.33;;;0.30;;
13406;SDS011;6774;48.208;10.766;2023-08-30T11:37:39;0.60;;;0.60;;
13406;SDS011;6774;48.208;10.766;2023-08-30T11:40:08;0.80;;;0.80;;
13406;SDS011;6774;48.208;10.766;2023-08-30T11:42:38;0.77;;;0.77;;
13406;SDS011;6774;48.208;10.766;2023-08-30T11:45:07;1.20;;;1.20;;
13406;SDS011;6774;48.208;10.766;2023-08-30T11:47:35;0.57;;;0.57;;
13406;SDS011;6774;48.208;10.766;2023-08-30T11:50:03;2.50;;;0.70;;
13406;SDS011;6774;48.208;10.766;2023-08-30T11:52:32;0.60;;;0.60;;
13406;SDS011;6774;48.208;10.766;2023-08-30T11:55:04;0.60;;;0.60;;
13406;SDS011;6774;48.208;10.766;2023-08-30T11:57:33;1.10;;;0.80;;
13406;SDS011;6774;48.208;10.766;2023-08-30T12:00:08;1.13;;;0.70;;
13406;SDS011;6774;48.208;10.766;2023-08-30T12:02:37;0.93;;;0.87;;
13406;SDS011;6774;48.208;10.766;2023-08-30T12:05:06;0.90;;;0.73;;
13406;SDS011;6774;48.208;10.766;2023-08-30T12:07:38;0.60;;;0.60;;
13406;SDS011;6774;48.208;10.766;2023-08-30T12:10:08;0.33;;;0.30;;
13406;SDS011;6774;48.208;10.766;2023-08-30T12:12:37;0.80;;;0.80;;
13406;SDS011;6774;48.208;10.766;2023-08-30T12:15:07;0.60;;;0.60;;
13406;SDS011;6774;48.208;10.766;2023-08-30T12:17:35;0.77;;;0.60;;
13406;SDS011;6774;48.208;10.766;2023-08-30T12:20:04;0.87;;;0.87;;
13406;SDS011;6774;48.208;10.766;2023-08-30T12:22:36;1.70;;;0.70;;
13406;SDS011;6774;48.208;10.766;2023-08-30T12:25:15;1.73;;;1.00;;
13406;SDS011;6774;48.208;10.766;2023-08-30T12:27:43;0.80;;;0.80;;
13406;SDS011;6774;48.208;10.766;2023-08-30T12:30:11;0.60;;;0.60;;
13406;SDS011;6774;48.208;10.766;2023-08-30T12:32:40;0.80;;;0.57;;
13406;SDS011;6774;48.208;10.766;2023-08-30T12:35:07;0.40;;;0.40;;
13406;SDS011;6774;48.208;10.766;2023-08-30T12:37:36;0.93;;;0.50;;
13406;SDS011;6774;48.208;10.766;2023-08-30T12:40:04;0.73;;;0.73;;
13406;SDS011;6774;48.208;10.766;2023-08-30T12:42:34;2.30;;;0.83;;
13406;SDS011;6774;48.208;10.766;2023-08-30T12:45:02;0.50;;;0.50;;
13406;SDS011;6774;48.208;10.766;2023-08-30T12:47:31;0.67;;;0.50;;
13406;SDS011;6774;48.208;10.766;2023-08-30T12:49:58;2.13;;;0.57;;
13406;SDS011;6774;48.208;10.766;2023-08-30T12:52:26;0.60;;;0.60;;
13406;SDS011;6774;48.208;10.766;2023-08-30T12:54:54;1.33;;;0.97;;
13406;SDS011;6774;48.208;10.766;2023-08-30T12:57:22;1.03;;;1.03;;
13406;SDS011;6774;48.208;10.766;2023-08-30T12:59:51;3.00;;;0.90;;
13406;SDS011;6774;48.208;10.766;2023-08-30T13:02:19;0.50;;;0.50;;
13406;SDS011;6774;48.208;10.766;2023-08-30T13:04:47;1.40;;;1.13;;
13406;SDS011;6774;48.208;10.766;2023-08-30T13:07:14;1.20;;;1.20;;
13406;SDS011;6774;48.208;10.766;2023-08-30T13:09:42;1.27;;;1.07;;
13406;SDS011;6774;48.208;10.766;2023-08-30T13:12:10;1.00;;;1.00;;
13406;SDS011;6774;48.208;10.766;2023-08-30T13:14:38;1.73;;;1.63;;
13406;SDS011;6774;48.208;10.766;2023-08-30T13:17:07;1.23;;;0.80;;
13406;SDS011;6774;48.208;10.766;2023-08-30T13:19:35;4.90;;;1.57;;
13406;SDS011;6774;48.208;10.766;2023-08-30T13:22:02;1.00;;;0.70;;
13406;SDS011;6774;48.208;10.766;2023-08-30T13:24:30;0.97;;;0.80;;
13406;SDS011;6774;48.208;10.766;2023-08-30T13:26:59;0.70;;;0.70;;
13406;SDS011;6774;48.208;10.766;2023-08-30T13:29:26;0.63;;;0.63;;
13406;SDS011;6774;48.208;10.766;2023-08-30T13:31:54;1.07;;;0.93;;
13406;SDS011;6774;48.208;10.766;2023-08-30T13:34:23;1.70;;;0.90;;
13406;SDS011;6774;48.208;10.766;2023-08-30T13:36:51;0.87;;;0.87;;
13406;SDS011;6774;48.208;10.766;2023-08-30T13:39:19;1.43;;;1.40;;
13406;SDS011;6774;48.208;10.766;2023-08-30T13:41:47;1.20;;;1.03;;
13406;SDS011;6774;48.208;10.766;2023-08-30T13:44:15;0.80;;;0.80;;
13406;SDS011;6774;48.208;10.766;2023-08-30T13:46:43;1.00;;;0.93;;
13406;SDS011;6774;48.208;10.766;2023-08-30T13:49:14;1.17;;;1.17;;
13406;SDS011;6774;48.208;10.766;2023-08-30T13:51:44;1.13;;;1.03;;
13406;SDS011;6774;48.208;10.766;2023-08-30T13:54:12;4.73;;;2.43;;
13406;SDS011;6774;48.208;10.766;2023-08-30T13:56:39;1.30;;;0.90;;
13406;SDS011;6774;48.208;10.766;2023-08-30T13:59:07;1.50;;;1.40;;
13406;SDS011;6774;48.208;10.766;2023-08-30T14:01:35;0.73;;;0.73;;
13406;SDS011;6774;48.208;10.766;2023-08-30T14:04:03;0.60;;;0.60;;
13406;SDS011;6774;48.208;10.766;2023-08-30T14:06:32;1.13;;;0.53;;
13406;SDS011;6774;48.208;10.766;2023-08-30T14:09:01;1.47;;;1.40;;
13406;SDS011;6774;48.208;10.766;2023-08-30T14:11:30;0.77;;;0.63;;
13406;SDS011;6774;48.208;10.766;2023-08-30T14:13:58;0.97;;;0.60;;
13406;SDS011;6774;48.208;10.766;2023-08-30T14:16:28;0.73;;;0.73;;
13406;SDS011;6774;48.208;10.766;2023-08-30T14:18:55;0.60;;;0.53;;
13406;SDS011;6774;48.208;10.766;2023-08-30T14:21:26;0.57;;;0.57;;
13406;SDS011;6774;48.208;10.766;2023-08-30T14:23:54;1.13;;;1.13;;
13406;SDS011;6774;48.208;10.766;2023-08-30T14:26:23;0.80;;;0.80;;
13406;SDS011;6774;48.208;10.766;2023-08-30T14:28:51;0.30;;;0.30;;
13406;SDS011;6774;48.208;10.766;2023-08-30T14:31:18;0.60;;;0.57;;
13406;SDS011;6774;48.208;10.766;2023-08-30T14:33:46;1.17;;;0.70;;
13406;SDS011;6774;48.208;10.766;2023-08-30T14:36:14;0.43;;;0.40;;
13406;SDS011;6774;48.208;10.766;2023-08-30T14:38:43;0.33;;;0.33;;
13406;SDS011;6774;48.208;10.766;2023-08-30T14:41:10;0.50;;;0.50;;
13406;SDS011;6774;48.208;10.766;2023-08-30T14:43:41;0.53;;;0.50;;
13406;SDS011;6774;48.208;10.766;2023-08-30T14:46:09;0.80;;;0.53;;
13406;SDS011;6774;48.208;10.766;2023-08-30T14:48:41;0.43;;;0.37;;
13406;SDS011;6774;48.208;10.766;2023-08-30T14:51:09;0.87;;;0.83;;
13406;SDS011;6774;48.208;10.766;2023-08-30T14:53:37;0.77;;;0.77;;
13406;SDS011;6774;48.208;10.766;2023-08-30T14:56:05;0.40;;;0.40;;
13406;SDS011;6774;48.208;10.766;2023-08-30T14:58:34;0.93;;;0.87;;